Terminal Aerodrome Forecast
Issued by NWS Charleston, WV

Home | Current Version | Previous Version | Text Only | Print | Product List | Glossary On
Versions: 1 2 3 4 5 6 7 8 9 10 11 12 13 14 15 16 17 18 19 20 21 22 23 24
000
FTUS41 KRLX 031739
TAFBKW
TAF
KBKW 031739Z 0318/0418 34005KT P6SM FEW070 BKN100 BKN120
     FM031900 33006KT P6SM VCTS BKN045CB
     FM032300 34005KT P6SM BKN080
     FM040300 00000KT P6SM SCT060
     FM041600 36004KT P6SM VCTS BKN045CB=

USA.gov is the U.S. government's official web portal to all federal, state and local government web resources and services.